Time;durP1;ratioP1;P1;durP2;ratioP2;P2;SDS_P1;SDS_P2;PMS_P1;PMS_P2;Temp;Humidity;BMP_temperature;BMP_pressure;BME280_temperature;BME280_humidity;BME280_pressure;Samples;Min_cycle;Max_cycle;Signal;HPM_P1;HPM_P2
2022/03/14 00:00:12;;;;;;;16.48;9.55;;;6.90;63.70;;;;;;5056863;28;20053;-68
2022/03/14 00:02:39;;;;;;;19.77;9.90;;;7.00;63.50;;;;;;5057882;28;20021;-67
2022/03/14 00:05:05;;;;;;;15.68;9.55;;;7.00;63.10;;;;;;5057188;28;20111;-68
2022/03/14 00:07:37;;;;;;;13.80;9.50;;;7.00;63.50;;;;;;5058007;28;20123;-68
2022/03/14 00:10:04;;;;;;;15.52;9.95;;;7.00;63.70;;;;;;5057198;28;20095;-67
2022/03/14 00:12:31;;;;;;;14.07;8.80;;;7.10;63.80;;;;;;5057287;28;20474;-68
2022/03/14 00:14:58;;;;;;;17.25;10.38;;;7.10;63.70;;;;;;5056748;28;20482;-67
2022/03/14 00:17:25;;;;;;;17.25;9.43;;;7.10;63.70;;;;;;5057737;28;20021;-68
2022/03/14 00:19:51;;;;;;;15.73;9.65;;;7.10;63.80;;;;;;5057259;28;20374;-67
2022/03/14 00:22:17;;;;;;;18.23;9.90;;;7.10;63.40;;;;;;5057263;28;20021;-67
2022/03/14 00:24:43;;;;;;;15.55;9.95;;;7.20;63.80;;;;;;5056789;28;20444;-67
2022/03/14 00:27:09;;;;;;;14.38;9.15;;;7.20;60.50;;;;;;5052903;28;20108;-67
2022/03/14 00:29:35;;;;;;;15.70;9.35;;;7.40;59.20;;;;;;5053947;28;20032;-67
2022/03/14 00:32:01;;;;;;;13.35;8.82;;;7.50;58.90;;;;;;5053689;28;20078;-67
2022/03/14 00:34:27;;;;;;;19.30;10.05;;;7.60;59.20;;;;;;5054423;28;20048;-67
2022/03/14 00:36:53;;;;;;;16.95;10.52;;;7.60;59.60;;;;;;5053666;28;20028;-67
2022/03/14 00:39:19;;;;;;;14.50;9.98;;;7.70;59.70;;;;;;5054332;28;20032;-67
2022/03/14 00:41:45;;;;;;;14.63;9.93;;;7.80;60.50;;;;;;5053044;28;20041;-67
2022/03/14 00:44:15;;;;;;;17.42;10.85;;;7.90;60.70;;;;;;5053132;28;20025;-67
2022/03/14 00:46:42;;;;;;;15.80;10.68;;;7.90;60.90;;;;;;5054448;28;20025;-68
2022/03/14 00:49:08;;;;;;;18.42;10.43;;;8.00;61.00;;;;;;5052072;28;20033;-67
2022/03/14 00:51:35;;;;;;;17.33;10.48;;;8.00;61.20;;;;;;5053913;28;20099;-67
2022/03/14 00:54:02;;;;;;;18.67;11.60;;;8.00;61.50;;;;;;5053185;28;20025;-67
2022/03/14 00:56:28;;;;;;;16.80;10.45;;;8.00;61.70;;;;;;5054198;28;20029;-67
2022/03/14 00:58:55;;;;;;;20.83;11.63;;;8.00;61.80;;;;;;5053078;28;20140;-67
2022/03/14 01:01:21;;;;;;;16.75;10.45;;;8.00;61.90;;;;;;5054611;28;20104;-67
2022/03/14 01:03:47;;;;;;;23.08;9.98;;;8.10;62.00;;;;;;5054340;28;20043;-67
2022/03/14 01:06:12;;;;;;;15.40;10.43;;;8.10;61.90;;;;;;5053303;28;20092;-68
2022/03/14 01:08:38;;;;;;;15.82;11.02;;;8.20;61.00;;;;;;5053805;28;20044;-68
2022/03/14 01:11:04;;;;;;;14.98;9.63;;;8.20;61.20;;;;;;5052991;28;20434;-67
2022/03/14 01:13:30;;;;;;;22.30;12.30;;;8.20;61.20;;;;;;5053040;28;20033;-67
2022/03/14 01:15:56;;;;;;;21.75;12.70;;;8.40;60.40;;;;;;5052701;28;20032;-67
2022/03/14 01:18:22;;;;;;;19.83;10.70;;;8.60;60.30;;;;;;5053561;28;20028;-67
2022/03/14 01:20:47;;;;;;;19.20;11.45;;;8.60;60.20;;;;;;5053342;28;20102;-67
2022/03/14 01:23:14;;;;;;;21.77;11.93;;;8.70;61.10;;;;;;5052384;28;20112;-67
2022/03/14 01:25:42;;;;;;;18.52;12.05;;;8.80;61.90;;;;;;5053341;28;20025;-68
2022/03/14 01:28:08;;;;;;;24.77;14.07;;;8.80;62.20;;;;;;5052530;28;20347;-67
2022/03/14 01:30:35;;;;;;;23.40;12.98;;;8.80;63.90;;;;;;5053247;28;20040;-67
2022/03/14 01:33:01;;;;;;;27.83;15.30;;;8.80;65.70;;;;;;5052575;28;20040;-67
2022/03/14 01:35:27;;;;;;;27.25;16.45;;;8.90;71.40;;;;;;5052002;28;20417;-67
2022/03/14 01:37:53;;;;;;;24.17;15.65;;;9.00;72.70;;;;;;5052610;28;20056;-67
2022/03/14 01:40:19;;;;;;;25.05;16.48;;;9.10;74.90;;;;;;5053279;28;20072;-67
2022/03/14 01:42:45;;;;;;;28.20;16.75;;;9.20;80.00;;;;;;5053198;28;20087;-67
2022/03/14 01:45:13;;;;;;;26.65;16.88;;;9.30;81.00;;;;;;5052295;28;20884;-67
2022/03/14 01:47:41;;;;;;;26.95;16.25;;;9.30;85.90;;;;;;5053148;28;20025;-67
2022/03/14 01:50:07;;;;;;;29.40;16.85;;;9.40;86.10;;;;;;5051992;28;20064;-67
2022/03/14 01:52:34;;;;;;;26.50;17.85;;;9.40;86.70;;;;;;5052940;28;20040;-67
2022/03/14 01:55:00;;;;;;;24.02;16.02;;;9.40;91.50;;;;;;5051977;28;20033;-67
2022/03/14 01:57:27;;;;;;;24.42;16.38;;;9.30;93.00;;;;;;5052557;28;20029;-68
2022/03/14 01:59:54;;;;;;;23.77;16.42;;;9.30;95.80;;;;;;5052310;28;20436;-67
2022/03/14 02:02:20;;;;;;;24.80;16.50;;;9.30;98.80;;;;;;5052678;28;20489;-66
2022/03/14 02:04:47;;;;;;;23.35;15.70;;;9.20;99.90;;;;;;5052203;28;20060;-67
2022/03/14 02:07:12;;;;;;;25.98;16.88;;;9.10;99.90;;;;;;5051897;28;20063;-66
2022/03/14 02:09:38;;;;;;;26.20;17.88;;;9.10;99.90;;;;;;5052623;28;20216;-67
2022/03/14 02:12:06;;;;;;;24.83;17.10;;;9.10;99.90;;;;;;5051818;28;20454;-67
2022/03/14 02:14:31;;;;;;;28.63;18.00;;;9.10;99.90;;;;;;5052094;28;20428;-66
2022/03/14 02:16:57;;;;;;;25.05;16.58;;;9.10;99.90;;;;;;5051668;28;20021;-66
2022/03/14 02:19:23;;;;;;;25.80;17.02;;;9.00;99.90;;;;;;5052305;28;20381;-67
2022/03/14 02:21:49;;;;;;;25.55;17.23;;;8.90;99.90;;;;;;5052416;28;20032;-66
2022/03/14 02:24:15;;;;;;;25.50;17.42;;;8.90;99.90;;;;;;5051612;28;20032;-66
2022/03/14 02:26:42;;;;;;;25.63;17.67;;;8.70;99.90;;;;;;5052299;28;20029;-67
2022/03/14 02:29:09;;;;;;;27.73;17.30;;;8.70;99.90;;;;;;5051436;28;20374;-66
2022/03/14 02:31:37;;;;;;;25.75;16.58;;;8.70;99.90;;;;;;5052048;28;20036;-66
2022/03/14 02:34:04;;;;;;;27.65;18.10;;;8.60;99.90;;;;;;5051210;28;20112;-66
2022/03/14 02:36:29;;;;;;;27.40;17.60;;;8.60;99.90;;;;;;5052379;28;20039;-66
2022/03/14 02:38:55;;;;;;;26.58;17.67;;;8.60;99.90;;;;;;5051762;28;20111;-66
2022/03/14 02:41:25;;;;;;;30.75;19.17;;;8.60;99.90;;;;;;5051428;28;20029;-67
2022/03/14 02:43:50;;;;;;;24.75;17.30;;;8.50;99.90;;;;;;5051980;28;20113;-67
2022/03/14 02:46:16;;;;;;;23.05;15.90;;;8.60;99.90;;;;;;5050757;28;20100;-67
2022/03/14 02:48:43;;;;;;;24.73;16.20;;;8.60;99.90;;;;;;5051541;28;20074;-66
2022/03/14 02:51:08;;;;;;;24.95;17.00;;;8.50;99.90;;;;;;5050966;28;20121;-68
2022/03/14 02:53:34;;;;;;;23.85;16.40;;;8.50;99.90;;;;;;5051725;28;20112;-65
2022/03/14 02:56:00;;;;;;;24.08;15.73;;;8.50;99.90;;;;;;5050787;28;20466;-67
2022/03/14 02:58:28;;;;;;;21.05;15.90;;;8.40;99.90;;;;;;5051680;28;20029;-66
2022/03/14 03:00:57;;;;;;;27.98;17.90;;;8.30;99.90;;;;;;5051766;28;20021;-68
2022/03/14 03:03:22;;;;;;;28.40;18.17;;;8.20;99.90;;;;;;5051410;28;20075;-67
2022/03/14 03:05:48;;;;;;;30.65;19.85;;;8.10;99.90;;;;;;5052016;28;20029;-67
2022/03/14 03:08:14;;;;;;;29.77;18.15;;;7.90;99.90;;;;;;5050837;28;20771;-67
2022/03/14 03:10:41;;;;;;;34.55;19.98;;;7.80;99.90;;;;;;5051682;28;20477;-68
2022/03/14 03:13:09;;;;;;;32.00;19.75;;;7.60;99.90;;;;;;5050956;28;20032;-67
2022/03/14 03:15:37;;;;;;;31.52;20.58;;;7.50;99.90;;;;;;5051359;28;20087;-68
2022/03/14 03:18:04;;;;;;;28.98;17.77;;;7.40;99.90;;;;;;5050732;28;20025;-68
2022/03/14 03:20:30;;;;;;;29.98;19.38;;;7.30;99.90;;;;;;5051870;28;20119;-67
2022/03/14 03:22:55;;;;;;;29.15;18.48;;;7.20;99.90;;;;;;5050254;28;20116;-68
2022/03/14 03:25:21;;;;;;;30.52;20.38;;;7.10;99.90;;;;;;5051122;28;20082;-68
2022/03/14 03:27:47;;;;;;;28.50;19.15;;;7.20;99.90;;;;;;5051721;28;20021;-68
2022/03/14 03:30:12;;;;;;;29.77;18.85;;;7.10;99.90;;;;;;5050255;28;20041;-68
2022/03/14 03:32:38;;;;;;;29.10;18.67;;;7.10;99.90;;;;;;5051207;28;20032;-68
2022/03/14 03:35:04;;;;;;;30.05;17.52;;;7.10;99.90;;;;;;5050651;28;20178;-67
2022/03/14 03:37:29;;;;;;;26.75;17.83;;;7.00;99.90;;;;;;5051646;28;20107;-68
2022/03/14 03:39:55;;;;;;;27.10;16.38;;;7.00;99.90;;;;;;5051680;28;20029;-68
2022/03/14 03:42:21;;;;;;;24.98;16.02;;;7.00;99.90;;;;;;5050736;28;20037;-68
2022/03/14 03:44:46;;;;;;;30.00;16.60;;;7.00;99.90;;;;;;5051382;28;20029;-66
2022/03/14 03:47:12;;;;;;;24.52;16.13;;;7.00;99.90;;;;;;5050485;28;20439;-67
2022/03/14 03:49:38;;;;;;;23.70;15.75;;;7.00;99.90;;;;;;5051145;28;20446;-66
2022/03/14 03:52:05;;;;;;;23.75;14.80;;;7.00;99.90;;;;;;5050457;28;20037;-67
2022/03/14 03:54:30;;;;;;;22.95;15.20;;;7.10;99.90;;;;;;5051222;28;20021;-67
2022/03/14 03:56:56;;;;;;;29.10;17.15;;;7.10;99.90;;;;;;5051160;28;20032;-67
2022/03/14 03:59:22;;;;;;;30.83;18.98;;;7.10;99.90;;;;;;5050276;28;20402;-68
2022/03/14 04:01:48;;;;;;;25.88;16.50;;;7.10;99.90;;;;;;5053631;28;20029;-67
2022/03/14 04:04:14;;;;;;;23.98;15.50;;;7.10;99.90;;;;;;5054064;28;20059;-67
2022/03/14 04:06:41;;;;;;;26.40;17.95;;;7.00;99.90;;;;;;5055064;28;20079;-68
2022/03/14 04:09:07;;;;;;;26.95;16.92;;;7.00;99.90;;;;;;5054268;28;20068;-68
2022/03/14 04:11:35;;;;;;;28.02;17.98;;;7.00;99.90;;;;;;5054426;28;20111;-67
2022/03/14 04:14:02;;;;;;;35.13;21.52;;;7.10;99.90;;;;;;5052934;28;20025;-67
2022/03/14 04:16:29;;;;;;;33.03;21.30;;;7.10;99.90;;;;;;5054738;28;20025;-67
2022/03/14 04:18:55;;;;;;;38.05;22.65;;;7.10;99.90;;;;;;5054630;28;20047;-67
2022/03/14 04:21:21;;;;;;;40.13;23.50;;;7.10;99.90;;;;;;5053828;28;20029;-68
2022/03/14 04:23:48;;;;;;;40.13;24.42;;;7.10;99.90;;;;;;5054458;28;20021;-68
2022/03/14 04:26:13;;;;;;;39.88;24.77;;;7.20;99.90;;;;;;5052576;28;20378;-68
2022/03/14 04:28:41;;;;;;;40.80;24.73;;;7.10;99.90;;;;;;5054340;28;20028;-68
2022/03/14 04:31:08;;;;;;;36.78;22.98;;;7.10;99.90;;;;;;5053666;28;20119;-69
2022/03/14 04:33:33;;;;;;;34.72;21.55;;;7.00;99.90;;;;;;5054417;28;20028;-68
2022/03/14 04:36:00;;;;;;;36.17;21.92;;;7.00;99.90;;;;;;5052758;28;20029;-68
2022/03/14 04:38:26;;;;;;;39.05;24.05;;;7.00;99.90;;;;;;5054113;28;20059;-68
2022/03/14 04:40:52;;;;;;;42.35;24.73;;;6.90;99.90;;;;;;5054307;28;20044;-69
2022/03/14 04:43:20;;;;;;;39.85;24.10;;;6.90;99.90;;;;;;5053580;28;20025;-69
2022/03/14 04:45:47;;;;;;;37.22;21.67;;;6.90;99.90;;;;;;5054373;28;20025;-68
2022/03/14 04:48:12;;;;;;;34.63;21.17;;;6.90;99.90;;;;;;5053188;28;20040;-68
2022/03/14 04:50:39;;;;;;;33.15;19.83;;;7.00;99.90;;;;;;5054088;28;20040;-69
2022/03/14 04:53:09;;;;;;;31.65;19.48;;;7.00;99.90;;;;;;5053293;28;20025;-70
2022/03/14 04:55:36;;;;;;;34.42;20.35;;;7.00;99.90;;;;;;5054214;28;20020;-69
2022/03/14 04:58:03;;;;;;;30.98;20.42;;;7.00;99.90;;;;;;5052994;28;20029;-68
2022/03/14 05:00:29;;;;;;;33.28;19.50;;;7.00;99.90;;;;;;5053524;28;20054;-69
2022/03/14 05:03:07;;;;;;;33.60;20.02;;;6.90;99.90;;;;;;5053939;28;20041;-68
2022/03/14 05:05:33;;;;;;;32.30;18.63;;;6.90;99.90;;;;;;5053875;28;20056;-69
2022/03/14 05:07:59;;;;;;;28.58;16.70;;;6.90;99.90;;;;;;5053559;28;20553;-69
2022/03/14 05:10:24;;;;;;;22.23;13.15;;;6.90;99.90;;;;;;5053533;28;20116;-68
2022/03/14 05:12:51;;;;;;;14.07;9.27;;;6.90;99.90;;;;;;5053390;28;20471;-68
2022/03/14 05:15:17;;;;;;;13.63;9.63;;;6.90;99.90;;;;;;5053221;28;20064;-69
2022/03/14 05:17:44;;;;;;;12.43;8.02;;;6.90;99.90;;;;;;5053568;28;20033;-68
2022/03/14 05:20:10;;;;;;;13.48;7.45;;;6.90;99.90;;;;;;5052763;28;20454;-68
2022/03/14 05:22:43;;;;;;;10.32;6.90;;;6.80;99.90;;;;;;5053505;28;20127;-68
2022/03/14 05:25:10;;;;;;;7.13;4.80;;;6.80;99.90;;;;;;5052611;28;20033;-68
2022/03/14 05:27:38;;;;;;;9.32;4.95;;;6.80;99.90;;;;;;5053429;28;20086;-69
2022/03/14 05:30:06;;;;;;;5.70;3.60;;;6.80;99.90;;;;;;5052568;28;20075;-68
2022/03/14 05:32:31;;;;;;;4.32;3.10;;;6.80;99.90;;;;;;5053258;28;20029;-69
2022/03/14 05:34:57;;;;;;;3.85;2.97;;;6.80;99.90;;;;;;5052986;28;20036;-69
2022/03/14 05:37:23;;;;;;;2.97;1.88;;;6.70;99.90;;;;;;5052467;28;20029;-69
2022/03/14 05:39:49;;;;;;;2.95;1.50;;;6.70;99.90;;;;;;5053199;28;20071;-68
2022/03/14 05:42:15;;;;;;;1.95;1.30;;;6.60;99.90;;;;;;5052412;28;20064;-68
2022/03/14 05:44:44;;;;;;;1.67;1.27;;;6.60;99.90;;;;;;5053561;28;20029;-69
2022/03/14 05:47:10;;;;;;;1.25;0.98;;;6.50;99.90;;;;;;5052062;28;20113;-69
2022/03/14 05:49:35;;;;;;;3.78;1.02;;;6.50;99.90;;;;;;5052791;28;20040;-70
2022/03/14 05:52:02;;;;;;;1.10;0.77;;;6.60;99.90;;;;;;5051353;28;20033;-69
2022/03/14 05:54:27;;;;;;;2.47;0.85;;;6.50;99.90;;;;;;5052760;28;20037;-68
2022/03/14 05:56:54;;;;;;;2.03;0.98;;;6.50;99.90;;;;;;5053021;28;20181;-67
2022/03/14 05:59:20;;;;;;;1.83;0.90;;;6.60;99.90;;;;;;5051963;28;20049;-68
2022/03/14 06:01:47;;;;;;;2.58;0.80;;;6.60;99.90;;;;;;5052835;28;20037;-67
2022/03/14 06:04:13;;;;;;;0.85;0.60;;;6.60;99.90;;;;;;5051852;28;20021;-68
2022/03/14 06:06:39;;;;;;;2.17;0.82;;;6.60;99.90;;;;;;5052700;28;20528;-68
2022/03/14 06:09:04;;;;;;;0.65;0.60;;;6.60;99.90;;;;;;5051809;28;20457;-68
2022/03/14 06:11:30;;;;;;;0.73;0.73;;;6.60;99.90;;;;;;5051065;28;20036;-68
2022/03/14 06:13:56;;;;;;;0.40;0.35;;;6.60;99.90;;;;;;5053286;28;20087;-68
2022/03/14 06:16:23;;;;;;;2.17;0.60;;;6.70;99.90;;;;;;5054736;28;20540;-68
2022/03/14 06:18:50;;;;;;;2.10;0.63;;;6.60;99.90;;;;;;5053056;28;20047;-67
2022/03/14 06:21:16;;;;;;;1.27;0.52;;;6.60;99.90;;;;;;5051580;28;20025;-67
2022/03/14 06:23:41;;;;;;;3.70;0.70;;;6.60;99.90;;;;;;5051957;28;20095;-68
2022/03/14 06:26:07;;;;;;;2.70;0.60;;;6.60;99.90;;;;;;5051758;28;20458;-68
2022/03/14 06:28:33;;;;;;;7.30;0.88;;;6.60;99.90;;;;;;5053303;28;20036;-68
2022/03/14 06:30:58;;;;;;;3.28;0.75;;;6.60;99.90;;;;;;5052450;28;20767;-68
2022/03/14 06:33:24;;;;;;;4.45;0.80;;;6.60;99.90;;;;;;5051742;28;20040;-71
2022/03/14 06:35:50;;;;;;;0.60;0.52;;;6.60;99.90;;;;;;5052384;28;20025;-68
2022/03/14 06:38:15;;;;;;;2.15;0.82;;;6.60;99.90;;;;;;5050987;28;20083;-68
2022/03/14 06:40:41;;;;;;;4.32;0.85;;;6.60;99.90;;;;;;5050848;28;20032;-68
2022/03/14 06:43:07;;;;;;;2.28;0.60;;;6.70;99.90;;;;;;5050926;28;20025;-70
2022/03/14 06:45:33;;;;;;;3.90;0.70;;;6.60;99.90;;;;;;5050602;28;20485;-71
2022/03/14 06:48:00;;;;;;;2.90;0.90;;;6.60;99.90;;;;;;5051955;28;20037;-72
2022/03/14 06:50:25;;;;;;;3.30;1.05;;;6.60;99.90;;;;;;5051029;28;20025;-72
2022/03/14 06:52:51;;;;;;;3.40;0.68;;;6.60;99.90;;;;;;5050623;28;20120;-74
2022/03/14 06:55:17;;;;;;;2.90;0.90;;;6.60;99.90;;;;;;5051073;28;20032;-71
2022/03/14 06:57:43;;;;;;;3.97;0.65;;;6.60;99.90;;;;;;5052109;28;20035;-71
2022/03/14 07:00:09;;;;;;;1.55;0.70;;;6.60;99.90;;;;;;5051280;28;20486;-77
2022/03/14 07:02:38;;;;;;;5.57;1.30;;;6.70;99.90;;;;;;5052068;28;20029;-72
2022/03/14 07:05:04;;;;;;;9.95;0.88;;;6.70;99.90;;;;;;5051421;28;20025;-71
2022/03/14 07:07:30;;;;;;;4.40;0.98;;;6.70;99.90;;;;;;5051359;28;20021;-70
2022/03/14 07:09:56;;;;;;;3.53;0.75;;;6.80;99.90;;;;;;5051421;28;20458;-69
2022/03/14 07:12:21;;;;;;;5.95;1.10;;;6.80;99.90;;;;;;5053150;28;20790;-69
2022/03/14 07:14:47;;;;;;;4.60;0.73;;;6.80;99.90;;;;;;5062948;28;20067;-69
2022/03/14 07:17:12;;;;;;;4.07;0.93;;;6.80;99.90;;;;;;5053052;28;20104;-69
2022/03/14 07:19:42;;;;;;;3.13;0.80;;;6.80;99.90;;;;;;5050778;28;20033;-69
2022/03/14 07:22:09;;;;;;;3.08;0.90;;;6.90;99.90;;;;;;5050191;28;20029;-70
2022/03/14 07:24:34;;;;;;;1.98;0.70;;;6.90;99.90;;;;;;5053629;28;20082;-70
2022/03/14 07:27:00;;;;;;;3.42;1.02;;;7.00;99.90;;;;;;5070525;28;20032;-69
2022/03/14 07:29:26;;;;;;;3.17;0.80;;;7.10;99.90;;;;;;5068321;28;20643;-67
2022/03/14 07:31:51;;;;;;;3.10;0.50;;;7.20;99.90;;;;;;5069639;28;20409;-68
2022/03/14 07:34:17;;;;;;;2.47;0.60;;;7.30;99.90;;;;;;5070051;28;20060;-68
2022/03/14 07:36:44;;;;;;;1.67;0.60;;;7.40;99.90;;;;;;5073749;28;20103;-68
2022/03/14 07:39:10;;;;;;;1.10;0.60;;;7.40;99.90;;;;;;5073186;28;20032;-71
2022/03/14 07:41:36;;;;;;;2.92;0.98;;;7.50;99.90;;;;;;5054215;28;20044;-68
2022/03/14 07:44:02;;;;;;;3.55;0.68;;;7.70;99.90;;;;;;5054794;28;20032;-68
2022/03/14 07:46:28;;;;;;;1.73;0.60;;;7.90;99.90;;;;;;5053819;28;20017;-68
2022/03/14 07:48:54;;;;;;;2.50;0.60;;;7.90;99.90;;;;;;5072148;28;20478;-68
2022/03/14 07:51:20;;;;;;;3.13;0.52;;;8.10;99.90;;;;;;5072876;28;20035;-68
2022/03/14 07:53:46;;;;;;;4.82;0.63;;;8.10;99.90;;;;;;5074291;28;20029;-69
2022/03/14 07:56:13;;;;;;;5.35;0.75;;;8.10;99.90;;;;;;5072681;28;20031;-70
2022/03/14 07:58:40;;;;;;;3.08;0.70;;;8.10;99.90;;;;;;5073770;28;20398;-68
2022/03/14 08:01:06;;;;;;;3.90;0.88;;;8.20;99.90;;;;;;5061261;28;20036;-68
2022/03/14 08:03:32;;;;;;;2.55;0.70;;;8.30;99.90;;;;;;5053281;28;20037;-69
2022/03/14 08:06:00;;;;;;;2.85;0.60;;;8.30;99.90;;;;;;5054302;28;20024;-69
2022/03/14 08:08:26;;;;;;;1.38;0.57;;;8.50;99.90;;;;;;5052261;28;20069;-69
2022/03/14 08:10:53;;;;;;;1.67;0.68;;;8.70;99.90;;;;;;5053397;28;20033;-68
2022/03/14 08:13:20;;;;;;;1.77;0.60;;;9.00;99.90;;;;;;5054195;28;20037;-69
2022/03/14 08:15:46;;;;;;;5.75;0.80;;;9.10;99.90;;;;;;5053104;28;20021;-69
2022/03/14 08:18:13;;;;;;;4.63;0.60;;;9.40;99.90;;;;;;5052488;28;20047;-69
2022/03/14 08:20:39;;;;;;;4.68;0.70;;;9.40;99.90;;;;;;5050459;28;20036;-69
2022/03/14 08:23:06;;;;;;;1.83;0.55;;;9.50;99.90;;;;;;5072455;28;20024;-69
2022/03/14 08:25:34;;;;;;;1.67;0.52;;;9.50;99.90;;;;;;5073188;28;20052;-69
2022/03/14 08:28:00;;;;;;;3.70;0.50;;;9.50;99.90;;;;;;5071662;28;20099;-69
2022/03/14 08:30:26;;;;;;;2.72;0.60;;;9.50;99.90;;;;;;5071898;28;20032;-68
2022/03/14 08:32:54;;;;;;;3.22;0.60;;;9.50;99.90;;;;;;5073522;28;20031;-68
2022/03/14 08:35:20;;;;;;;5.55;0.82;;;9.60;99.90;;;;;;5071905;28;20070;-67
2022/03/14 08:37:48;;;;;;;3.50;0.63;;;9.60;99.90;;;;;;5059824;28;20418;-68
2022/03/14 08:40:16;;;;;;;5.10;1.10;;;9.50;99.90;;;;;;5052267;28;20491;-68
2022/03/14 08:42:44;;;;;;;6.88;0.90;;;9.50;99.90;;;;;;5053903;28;20063;-68
2022/03/14 08:45:10;;;;;;;5.50;0.85;;;9.40;99.90;;;;;;5064888;28;20021;-68
2022/03/14 08:47:36;;;;;;;4.10;0.85;;;9.40;99.90;;;;;;5051993;28;20025;-68
2022/03/14 08:50:07;;;;;;;3.92;0.77;;;9.30;99.90;;;;;;5052952;28;20485;-68
2022/03/14 08:52:33;;;;;;;4.05;0.90;;;9.50;99.90;;;;;;5053112;28;20108;-68
2022/03/14 08:54:59;;;;;;;4.63;0.80;;;9.60;99.90;;;;;;5048720;28;20425;-67
2022/03/14 08:57:25;;;;;;;7.00;0.93;;;9.80;99.90;;;;;;5053833;28;20024;-68
2022/03/14 08:59:50;;;;;;;2.75;0.60;;;9.90;99.90;;;;;;5054008;28;20049;-68
2022/03/14 09:02:16;;;;;;;5.20;0.80;;;10.10;99.90;;;;;;5053124;28;20467;-68
2022/03/14 09:04:42;;;;;;;8.98;1.35;;;10.20;99.10;;;;;;5053791;28;20108;-68
2022/03/14 09:07:08;;;;;;;5.57;0.85;;;10.30;98.70;;;;;;5053567;28;20079;-68
2022/03/14 09:09:36;;;;;;;2.95;1.20;;;10.30;97.60;;;;;;5052644;28;20057;-68
2022/03/14 09:12:03;;;;;;;2.75;0.75;;;10.30;97.10;;;;;;5085100;28;20143;-68
2022/03/14 09:14:31;;;;;;;4.93;0.98;;;10.40;96.20;;;;;;5032849;28;20064;-68
2022/03/14 09:16:57;;;;;;;5.20;0.90;;;10.50;96.10;;;;;;5033263;28;20429;-68
2022/03/14 09:19:24;;;;;;;5.40;1.00;;;10.60;97.10;;;;;;5032676;28;20037;-68
2022/03/14 09:21:50;;;;;;;5.07;0.95;;;10.60;96.40;;;;;;5033340;28;20068;-68
2022/03/14 09:24:16;;;;;;;5.88;0.80;;;10.70;95.80;;;;;;5032461;28;20084;-68
2022/03/14 09:26:41;;;;;;;2.03;0.65;;;10.80;95.10;;;;;;5033289;28;20498;-68
2022/03/14 09:29:08;;;;;;;4.43;0.88;;;10.80;94.40;;;;;;5033319;28;20029;-67
2022/03/14 09:31:33;;;;;;;3.47;0.70;;;10.90;93.30;;;;;;5032566;28;20033;-68
2022/03/14 09:34:00;;;;;;;5.68;1.20;;;10.90;92.50;;;;;;5033251;28;20531;-67
2022/03/14 09:36:26;;;;;;;6.68;0.85;;;10.80;93.50;;;;;;5032476;28;20030;-67
2022/03/14 09:38:51;;;;;;;6.32;1.00;;;10.60;92.90;;;;;;5033145;28;20127;-67
2022/03/14 09:41:18;;;;;;;10.35;1.27;;;10.60;93.90;;;;;;5031835;28;20398;-68
2022/03/14 09:43:51;;;;;;;5.93;0.95;;;10.50;94.40;;;;;;5056718;28;20432;-68
2022/03/14 09:46:20;;;;;;;6.40;1.40;;;10.60;95.20;;;;;;5052093;28;20485;-67
2022/03/14 09:48:56;;;;;;;7.07;0.90;;;10.70;93.40;;;;;;5052869;28;20033;-67
2022/03/14 09:51:23;;;;;;;7.53;1.25;;;10.70;92.90;;;;;;5050525;28;20033;-67
2022/03/14 09:53:49;;;;;;;4.57;1.13;;;10.70;92.00;;;;;;5052646;28;20485;-67
2022/03/14 09:56:15;;;;;;;7.65;1.08;;;10.70;91.60;;;;;;5051513;28;20032;-68
2022/03/14 09:58:44;;;;;;;4.03;0.65;;;10.80;91.10;;;;;;5051990;28;20060;-67
2022/03/14 10:01:11;;;;;;;9.30;1.30;;;11.00;90.20;;;;;;5051771;28;20198;-67
2022/03/14 10:03:36;;;;;;;4.40;1.20;;;11.00;90.40;;;;;;5051933;28;20048;-68
2022/03/14 10:06:02;;;;;;;4.93;0.80;;;11.00;90.20;;;;;;5051747;28;20446;-68
2022/03/14 10:08:28;;;;;;;7.28;1.20;;;11.10;89.40;;;;;;5050819;28;20432;-68
2022/03/14 10:10:53;;;;;;;7.10;0.90;;;11.20;90.20;;;;;;5051195;28;20059;-67
2022/03/14 10:13:19;;;;;;;3.63;1.15;;;11.30;89.50;;;;;;5050810;28;20162;-67
2022/03/14 10:15:45;;;;;;;7.25;1.48;;;11.50;85.40;;;;;;5051771;28;20028;-68
2022/03/14 10:18:12;;;;;;;5.13;1.25;;;11.60;85.10;;;;;;5051328;28;20021;-68
2022/03/14 10:20:57;;;;;;;4.32;0.70;;;11.90;84.70;;;;;;5051390;28;20029;-68
2022/03/14 10:23:35;;;;;;;5.90;0.98;;;12.00;81.70;;;;;;5050805;28;20033;-68
2022/03/14 10:26:00;;;;;;;5.63;1.00;;;12.00;79.50;;;;;;5051376;28;20029;-68
2022/03/14 10:28:31;;;;;;;4.00;1.45;;;12.10;78.80;;;;;;5049669;28;20194;-69
2022/03/14 10:31:01;;;;;;;5.05;0.88;;;12.00;78.40;;;;;;5051405;28;20032;-68
2022/03/14 10:33:30;;;;;;;2.88;0.90;;;12.20;78.30;;;;;;5049646;28;20033;-68
2022/03/14 10:35:57;;;;;;;5.05;1.00;;;12.40;76.20;;;;;;5050149;28;20033;-69
2022/03/14 10:38:25;;;;;;;9.35;1.77;;;12.40;77.30;;;;;;5050665;28;20044;-69
2022/03/14 10:40:51;;;;;;;7.55;1.27;;;12.50;77.30;;;;;;5051289;28;20029;-69
2022/03/14 10:43:20;;;;;;;10.75;1.27;;;12.60;79.20;;;;;;5060679;28;20033;-69
2022/03/14 10:45:46;;;;;;;6.72;1.33;;;12.60;78.30;;;;;;5031383;28;20025;-69
2022/03/14 10:48:12;;;;;;;3.53;0.90;;;12.80;75.90;;;;;;5031149;28;20026;-69
2022/03/14 10:50:40;;;;;;;6.07;1.10;;;13.00;76.10;;;;;;5029489;28;20368;-69
2022/03/14 10:53:12;;;;;;;9.35;1.35;;;13.30;75.70;;;;;;5031067;28;20037;-69
2022/03/14 10:55:45;;;;;;;3.47;0.82;;;13.50;70.60;;;;;;5030608;28;20026;-69
2022/03/14 10:58:11;;;;;;;5.35;0.82;;;13.60;69.40;;;;;;5030935;28;20079;-69
2022/03/14 11:00:44;;;;;;;2.97;0.77;;;13.50;69.50;;;;;;5030825;28;20053;-69
2022/03/14 11:03:10;;;;;;;5.88;0.77;;;13.60;67.90;;;;;;5031188;28;20060;-69
2022/03/14 11:05:45;;;;;;;9.20;0.98;;;13.60;66.80;;;;;;5030943;28;20432;-69
2022/03/14 11:08:29;;;;;;;3.67;0.90;;;13.80;65.30;;;;;;5031476;28;20031;-69
2022/03/14 11:10:59;;;;;;;8.23;1.00;;;13.70;64.70;;;;;;5031177;28;20096;-68
2022/03/14 11:13:26;;;;;;;2.40;0.60;;;13.70;64.60;;;;;;5053159;28;20375;-68
2022/03/14 11:15:51;;;;;;;6.07;1.00;;;13.70;64.20;;;;;;5071424;28;20037;-69
2022/03/14 11:18:18;;;;;;;4.22;1.08;;;13.90;63.90;;;;;;5070855;28;20432;-69
2022/03/14 11:20:44;;;;;;;7.55;1.73;;;14.00;63.00;;;;;;5070255;28;20357;-69
2022/03/14 11:23:10;;;;;;;5.05;1.20;;;14.10;63.30;;;;;;5071716;28;20035;-68
2022/03/14 11:25:38;;;;;;;4.45;0.80;;;14.10;62.80;;;;;;5050422;28;20033;-69
2022/03/14 11:28:04;;;;;;;4.35;1.65;;;14.20;62.90;;;;;;5052232;28;20021;-68
2022/03/14 11:30:34;;;;;;;5.63;1.17;;;14.10;63.20;;;;;;5051068;28;20064;-69
2022/03/14 11:33:03;;;;;;;10.35;2.60;;;14.10;63.40;;;;;;5051608;28;20033;-69
2022/03/14 11:35:29;;;;;;;3.85;1.13;;;14.30;62.80;;;;;;5050691;28;20025;-69
2022/03/14 11:37:56;;;;;;;8.02;1.20;;;14.20;61.90;;;;;;5051419;28;20442;-69
2022/03/14 11:40:22;;;;;;;3.78;1.02;;;14.20;62.00;;;;;;5050807;28;20079;-69
2022/03/14 11:42:48;;;;;;;2.83;0.90;;;14.30;61.80;;;;;;5057141;28;20359;-69
2022/03/14 11:45:15;;;;;;;6.43;1.17;;;14.50;61.70;;;;;;5071249;28;20149;-69
2022/03/14 11:47:42;;;;;;;2.20;0.82;;;14.70;61.50;;;;;;5070544;28;20032;-69
2022/03/14 11:50:08;;;;;;;3.38;0.90;;;15.00;60.10;;;;;;5071144;28;20035;-69
2022/03/14 11:52:42;;;;;;;7.07;1.35;;;15.40;59.80;;;;;;5070320;28;20119;-69
2022/03/14 11:55:19;;;;;;;2.78;0.80;;;15.70;58.70;;;;;;5070978;28;20025;-69
2022/03/14 11:57:47;;;;;;;6.07;1.10;;;16.10;57.40;;;;;;5070657;28;20020;-69
2022/03/14 12:00:21;;;;;;;10.25;1.40;;;16.30;56.50;;;;;;5070866;28;20053;-68
2022/03/14 12:02:48;;;;;;;4.35;0.90;;;16.40;56.10;;;;;;5071106;28;20028;-69
2022/03/14 12:05:40;;;;;;;5.38;0.88;;;16.50;56.20;;;;;;5070011;28;20029;-69
2022/03/14 12:08:32;;;;;;;4.43;0.95;;;16.80;54.60;;;;;;5070695;28;20103;-69
2022/03/14 12:11:32;;;;;;;4.20;1.15;;;17.10;53.60;;;;;;5070826;28;20047;-69
2022/03/14 12:13:57;;;;;;;3.37;0.83;;;17.30;53.10;;;;;;5065830;28;20037;-69
2022/03/14 12:16:44;;;;;;;19.73;1.65;;;17.50;52.60;;;;;;5069994;28;20278;-69
2022/03/14 12:19:33;;;;;;;2.95;1.00;;;17.70;52.00;;;;;;5069859;28;20359;-69
2022/03/14 12:22:03;;;;;;;5.15;0.90;;;17.70;51.90;;;;;;5071860;28;20032;-68
2022/03/14 12:24:37;;;;;;;2.80;1.00;;;18.00;51.10;;;;;;5073863;28;20024;-69
2022/03/14 12:27:19;;;;;;;3.72;0.90;;;18.30;50.50;;;;;;5074902;28;20078;-69
2022/03/14 12:29:46;;;;;;;2.65;1.00;;;18.50;50.20;;;;;;5072912;28;20448;-69
2022/03/14 12:32:39;;;;;;;2.00;0.98;;;18.80;49.20;;;;;;5074321;28;20063;-69
2022/03/14 12:35:26;;;;;;;4.97;0.90;;;18.90;48.60;;;;;;5071504;28;20040;-69
2022/03/14 12:37:55;;;;;;;2.17;0.60;;;18.90;49.20;;;;;;5074189;28;20078;-69
2022/03/14 12:40:21;;;;;;;1.48;0.60;;;18.80;49.20;;;;;;5071672;28;20506;-69
2022/03/14 12:42:47;;;;;;;2.67;0.80;;;18.40;48.90;;;;;;5073945;28;20060;-69
2022/03/14 12:45:30;;;;;;;3.47;0.80;;;18.10;49.40;;;;;;5058329;28;20032;-69